Terminal Aerodrome Forecast
Issued by NWS Jackson, MS

Home | Current Version | Previous Version | Text Only | Print | Product List | Glossary On
Versions: 1 2 3 4 5 6 7 8 9 10 11 12 13 14 15 16 17 18
000
FTUS44 KJAN 241243 AAA
TAFGWO
TAF AMD
KGWO 241243Z 2413/2512 27005KT P6SM OVC080
     FM241400 30010KT P6SM SCT015 BKN100
     FM241900 28012G20KT P6SM VCSH BKN040
     FM242200 27011G19KT P6SM SCT040 BKN100
     FM250100 29006KT P6SM SKC=

USA.gov is the U.S. government's official web portal to all federal, state and local government web resources and services.